sensor_id;sensor_type;location;lat;lon;timestamp;temperature;humidity
21493;DHT22;10908;50.690;4.400;2023-05-16T00:02:05;10.20;76.20
21493;DHT22;10908;50.690;4.400;2023-05-16T00:04:31;10.20;76.00
21493;DHT22;10908;50.690;4.400;2023-05-16T00:06:57;10.10;76.10
21493;DHT22;10908;50.690;4.400;2023-05-16T00:09:23;10.10;76.10
21493;DHT22;10908;50.690;4.400;2023-05-16T00:11:49;10.00;76.40
21493;DHT22;10908;50.690;4.400;2023-05-16T00:14:15;10.00;76.60
21493;DHT22;10908;50.690;4.400;2023-05-16T00:16:41;9.90;76.70
21493;DHT22;10908;50.690;4.400;2023-05-16T00:19:06;9.90;76.90
21493;DHT22;10908;50.690;4.400;2023-05-16T00:21:33;9.80;77.30
21493;DHT22;10908;50.690;4.400;2023-05-16T00:23:58;9.70;77.50
21493;DHT22;10908;50.690;4.400;2023-05-16T00:26:24;9.80;77.50
21493;DHT22;10908;50.690;4.400;2023-05-16T00:28:50;9.80;77.40
21493;DHT22;10908;50.690;4.400;2023-05-16T00:31:16;9.80;77.10
21493;DHT22;10908;50.690;4.400;2023-05-16T00:33:42;9.80;77.30
21493;DHT22;10908;50.690;4.400;2023-05-16T00:36:07;9.80;77.70
21493;DHT22;10908;50.690;4.400;2023-05-16T00:38:33;9.70;77.90
21493;DHT22;10908;50.690;4.400;2023-05-16T00:40:58;9.70;78.00
21493;DHT22;10908;50.690;4.400;2023-05-16T00:43:25;9.80;78.00
21493;DHT22;10908;50.690;4.400;2023-05-16T00:45:50;9.80;77.40
21493;DHT22;10908;50.690;4.400;2023-05-16T00:48:16;9.80;77.80
21493;DHT22;10908;50.690;4.400;2023-05-16T00:50:43;9.70;78.20
21493;DHT22;10908;50.690;4.400;2023-05-16T00:53:09;9.70;78.10
21493;DHT22;10908;50.690;4.400;2023-05-16T00:55:36;9.90;77.80
21493;DHT22;10908;50.690;4.400;2023-05-16T00:58:03;10.00;77.10
21493;DHT22;10908;50.690;4.400;2023-05-16T01:00:29;9.80;77.80
21493;DHT22;10908;50.690;4.400;2023-05-16T01:02:55;9.70;77.90
21493;DHT22;10908;50.690;4.400;2023-05-16T01:05:21;9.70;78.30
21493;DHT22;10908;50.690;4.400;2023-05-16T01:07:46;9.60;78.50
21493;DHT22;10908;50.690;4.400;2023-05-16T01:10:12;9.70;78.40
21493;DHT22;10908;50.690;4.400;2023-05-16T01:13:00;9.70;78.40
21493;DHT22;10908;50.690;4.400;2023-05-16T01:15:34;9.60;78.40
21493;DHT22;10908;50.690;4.400;2023-05-16T01:18:03;9.50;78.70
21493;DHT22;10908;50.690;4.400;2023-05-16T01:20:48;9.30;79.40
21493;DHT22;10908;50.690;4.400;2023-05-16T01:28:21;9.40;79.50
21493;DHT22;10908;50.690;4.400;2023-05-16T01:30:47;9.40;79.40
21493;DHT22;10908;50.690;4.400;2023-05-16T01:33:15;9.60;78.80
21493;DHT22;10908;50.690;4.400;2023-05-16T01:36:05;9.40;79.10
21493;DHT22;10908;50.690;4.400;2023-05-16T01:38:40;9.30;79.50
21493;DHT22;10908;50.690;4.400;2023-05-16T01:41:23;9.20;79.60
21493;DHT22;10908;50.690;4.400;2023-05-16T01:44:01;9.20;79.80
21493;DHT22;10908;50.690;4.400;2023-05-16T01:46:32;9.20;79.90
21493;DHT22;10908;50.690;4.400;2023-05-16T01:49:17;9.00;80.20
21493;DHT22;10908;50.690;4.400;2023-05-16T01:51:49;9.20;79.90
21493;DHT22;10908;50.690;4.400;2023-05-16T01:54:17;9.20;80.00
21493;DHT22;10908;50.690;4.400;2023-05-16T01:56:51;8.90;79.90
21493;DHT22;10908;50.690;4.400;2023-05-16T01:59:21;9.10;80.00
21493;DHT22;10908;50.690;4.400;2023-05-16T02:01:48;8.90;80.40
21493;DHT22;10908;50.690;4.400;2023-05-16T02:04:14;8.80;80.90
21493;DHT22;10908;50.690;4.400;2023-05-16T02:06:41;8.80;81.00
21493;DHT22;10908;50.690;4.400;2023-05-16T02:09:07;8.90;81.00
21493;DHT22;10908;50.690;4.400;2023-05-16T02:11:33;8.60;81.20
21493;DHT22;10908;50.690;4.400;2023-05-16T02:13:58;8.50;81.80
21493;DHT22;10908;50.690;4.400;2023-05-16T02:16:24;8.60;81.80
21493;DHT22;10908;50.690;4.400;2023-05-16T02:18:50;8.70;81.60
21493;DHT22;10908;50.690;4.400;2023-05-16T02:21:15;8.50;81.40
21493;DHT22;10908;50.690;4.400;2023-05-16T02:23:41;8.60;81.70
21493;DHT22;10908;50.690;4.400;2023-05-16T02:26:07;8.80;81.10
21493;DHT22;10908;50.690;4.400;2023-05-16T02:28:32;8.80;80.70
21493;DHT22;10908;50.690;4.400;2023-05-16T02:30:59;8.80;80.70
21493;DHT22;10908;50.690;4.400;2023-05-16T02:33:25;9.00;79.90
21493;DHT22;10908;50.690;4.400;2023-05-16T02:35:52;8.70;80.30
21493;DHT22;10908;50.690;4.400;2023-05-16T02:38:18;8.40;80.90
21493;DHT22;10908;50.690;4.400;2023-05-16T02:40:46;8.20;81.70
21493;DHT22;10908;50.690;4.400;2023-05-16T02:43:11;8.20;82.30
21493;DHT22;10908;50.690;4.400;2023-05-16T02:45:37;8.10;82.50
21493;DHT22;10908;50.690;4.400;2023-05-16T02:48:03;7.90;82.80
21493;DHT22;10908;50.690;4.400;2023-05-16T02:50:28;7.80;83.10
21493;DHT22;10908;50.690;4.400;2023-05-16T02:52:54;7.80;83.40
21493;DHT22;10908;50.690;4.400;2023-05-16T02:55:20;7.80;83.80
21493;DHT22;10908;50.690;4.400;2023-05-16T02:57:45;7.90;83.20
21493;DHT22;10908;50.690;4.400;2023-05-16T03:00:12;7.80;83.30
21493;DHT22;10908;50.690;4.400;2023-05-16T03:02:38;7.60;83.40
21493;DHT22;10908;50.690;4.400;2023-05-16T03:05:04;7.60;83.80
21493;DHT22;10908;50.690;4.400;2023-05-16T03:07:30;7.50;83.90
21493;DHT22;10908;50.690;4.400;2023-05-16T03:09:56;7.50;84.10
21493;DHT22;10908;50.690;4.400;2023-05-16T03:12:22;7.40;84.20
21493;DHT22;10908;50.690;4.400;2023-05-16T03:14:47;7.40;84.20
21493;DHT22;10908;50.690;4.400;2023-05-16T03:17:13;7.30;84.20
21493;DHT22;10908;50.690;4.400;2023-05-16T03:19:39;7.30;84.60
21493;DHT22;10908;50.690;4.400;2023-05-16T03:22:04;7.30;84.50
21493;DHT22;10908;50.690;4.400;2023-05-16T03:24:30;7.60;84.20
21493;DHT22;10908;50.690;4.400;2023-05-16T03:26:56;7.70;83.40
21493;DHT22;10908;50.690;4.400;2023-05-16T03:29:22;7.60;83.10
21493;DHT22;10908;50.690;4.400;2023-05-16T03:31:47;7.70;83.30
21493;DHT22;10908;50.690;4.400;2023-05-16T03:34:13;7.80;82.80
21493;DHT22;10908;50.690;4.400;2023-05-16T03:36:40;7.80;82.80
21493;DHT22;10908;50.690;4.400;2023-05-16T03:39:06;7.70;82.80
21493;DHT22;10908;50.690;4.400;2023-05-16T03:41:33;7.60;83.20
21493;DHT22;10908;50.690;4.400;2023-05-16T03:43:59;7.70;83.20
21493;DHT22;10908;50.690;4.400;2023-05-16T03:46:25;7.60;83.20
21493;DHT22;10908;50.690;4.400;2023-05-16T03:48:50;7.70;83.40
21493;DHT22;10908;50.690;4.400;2023-05-16T03:51:16;7.90;82.70
21493;DHT22;10908;50.690;4.400;2023-05-16T03:53:42;7.60;82.70
21493;DHT22;10908;50.690;4.400;2023-05-16T03:56:07;7.50;83.30
21493;DHT22;10908;50.690;4.400;2023-05-16T03:58:33;7.30;83.50
21493;DHT22;10908;50.690;4.400;2023-05-16T04:00:59;7.20;84.00
21493;DHT22;10908;50.690;4.400;2023-05-16T04:03:25;7.10;84.50
21493;DHT22;10908;50.690;4.400;2023-05-16T04:05:53;7.10;84.80
21493;DHT22;10908;50.690;4.400;2023-05-16T04:08:22;7.10;84.40
21493;DHT22;10908;50.690;4.400;2023-05-16T04:10:47;7.20;84.00
21493;DHT22;10908;50.690;4.400;2023-05-16T04:13:13;7.10;83.80
21493;DHT22;10908;50.690;4.400;2023-05-16T04:15:39;7.00;83.90
21493;DHT22;10908;50.690;4.400;2023-05-16T04:18:05;7.00;84.10
21493;DHT22;10908;50.690;4.400;2023-05-16T04:20:30;6.90;84.20
21493;DHT22;10908;50.690;4.400;2023-05-16T04:22:56;7.10;84.50
21493;DHT22;10908;50.690;4.400;2023-05-16T04:25:22;7.20;84.50
21493;DHT22;10908;50.690;4.400;2023-05-16T04:27:47;7.70;84.10
21493;DHT22;10908;50.690;4.400;2023-05-16T04:30:13;8.00;82.30
21493;DHT22;10908;50.690;4.400;2023-05-16T04:32:39;8.40;81.20
21493;DHT22;10908;50.690;4.400;2023-05-16T04:35:05;9.00;79.90
21493;DHT22;10908;50.690;4.400;2023-05-16T04:37:33;9.60;76.70
21493;DHT22;10908;50.690;4.400;2023-05-16T04:40:00;9.90;75.20
21493;DHT22;10908;50.690;4.400;2023-05-16T04:42:26;9.90;74.70
21493;DHT22;10908;50.690;4.400;2023-05-16T04:44:51;10.10;74.40
21493;DHT22;10908;50.690;4.400;2023-05-16T04:47:17;10.10;73.90
21493;DHT22;10908;50.690;4.400;2023-05-16T04:49:43;10.10;74.40
21493;DHT22;10908;50.690;4.400;2023-05-16T04:52:09;10.10;74.20
21493;DHT22;10908;50.690;4.400;2023-05-16T04:54:34;10.10;74.50
21493;DHT22;10908;50.690;4.400;2023-05-16T04:57:00;10.30;74.00
21493;DHT22;10908;50.690;4.400;2023-05-16T04:59:26;10.40;73.80
21493;DHT22;10908;50.690;4.400;2023-05-16T05:01:51;10.30;74.40
21493;DHT22;10908;50.690;4.400;2023-05-16T05:04:18;10.40;74.30
21493;DHT22;10908;50.690;4.400;2023-05-16T05:06:43;10.40;74.40
21493;DHT22;10908;50.690;4.400;2023-05-16T05:09:09;10.50;74.30
21493;DHT22;10908;50.690;4.400;2023-05-16T05:11:35;10.50;74.50
21493;DHT22;10908;50.690;4.400;2023-05-16T05:14:01;10.50;74.60
21493;DHT22;10908;50.690;4.400;2023-05-16T05:16:27;10.30;75.40
21493;DHT22;10908;50.690;4.400;2023-05-16T05:18:52;10.30;75.40
21493;DHT22;10908;50.690;4.400;2023-05-16T05:21:18;10.40;75.50
21493;DHT22;10908;50.690;4.400;2023-05-16T05:23:44;10.60;75.30
21493;DHT22;10908;50.690;4.400;2023-05-16T05:26:10;10.60;75.50
21493;DHT22;10908;50.690;4.400;2023-05-16T05:28:36;10.40;75.70
21493;DHT22;10908;50.690;4.400;2023-05-16T05:31:03;10.40;76.30
21493;DHT22;10908;50.690;4.400;2023-05-16T05:33:29;10.30;76.90
21493;DHT22;10908;50.690;4.400;2023-05-16T05:35:56;10.30;76.80
21493;DHT22;10908;50.690;4.400;2023-05-16T05:38:22;10.30;77.00
21493;DHT22;10908;50.690;4.400;2023-05-16T05:40:47;10.20;76.70
21493;DHT22;10908;50.690;4.400;2023-05-16T05:43:14;10.10;76.90
21493;DHT22;10908;50.690;4.400;2023-05-16T05:45:40;10.10;77.30
21493;DHT22;10908;50.690;4.400;2023-05-16T05:48:06;10.00;77.90
21493;DHT22;10908;50.690;4.400;2023-05-16T05:50:32;9.90;78.10
21493;DHT22;10908;50.690;4.400;2023-05-16T05:52:58;9.90;78.20
21493;DHT22;10908;50.690;4.400;2023-05-16T05:55:24;10.00;78.10
21493;DHT22;10908;50.690;4.400;2023-05-16T05:57:49;10.00;78.40
21493;DHT22;10908;50.690;4.400;2023-05-16T06:00:15;10.10;78.70
21493;DHT22;10908;50.690;4.400;2023-05-16T06:02:41;10.20;78.50
21493;DHT22;10908;50.690;4.400;2023-05-16T06:05:07;10.20;78.50
21493;DHT22;10908;50.690;4.400;2023-05-16T06:07:33;10.30;78.60
21493;DHT22;10908;50.690;4.400;2023-05-16T06:09:59;10.30;77.80
21493;DHT22;10908;50.690;4.400;2023-05-16T06:12:28;10.30;77.40
21493;DHT22;10908;50.690;4.400;2023-05-16T06:14:54;10.20;78.00
21493;DHT22;10908;50.690;4.400;2023-05-16T06:17:20;10.40;78.10
21493;DHT22;10908;50.690;4.400;2023-05-16T06:19:46;10.40;78.10
21493;DHT22;10908;50.690;4.400;2023-05-16T06:22:12;10.30;77.70
21493;DHT22;10908;50.690;4.400;2023-05-16T06:24:39;10.50;77.50
21493;DHT22;10908;50.690;4.400;2023-05-16T06:27:05;10.60;75.90
21493;DHT22;10908;50.690;4.400;2023-05-16T06:29:31;10.30;75.20
21493;DHT22;10908;50.690;4.400;2023-05-16T06:31:57;10.50;75.60
21493;DHT22;10908;50.690;4.400;2023-05-16T06:34:22;10.30;73.10
21493;DHT22;10908;50.690;4.400;2023-05-16T06:36:53;10.30;73.70
21493;DHT22;10908;50.690;4.400;2023-05-16T06:39:18;10.40;74.10
21493;DHT22;10908;50.690;4.400;2023-05-16T06:41:44;10.70;73.50
21493;DHT22;10908;50.690;4.400;2023-05-16T06:44:10;11.00;72.30
21493;DHT22;10908;50.690;4.400;2023-05-16T06:46:36;10.90;71.20
21493;DHT22;10908;50.690;4.400;2023-05-16T06:49:03;11.10;70.40
21493;DHT22;10908;50.690;4.400;2023-05-16T06:51:29;11.10;70.90
21493;DHT22;10908;50.690;4.400;2023-05-16T06:53:55;11.00;70.60
21493;DHT22;10908;50.690;4.400;2023-05-16T06:56:21;10.90;70.50
21493;DHT22;10908;50.690;4.400;2023-05-16T06:58:48;10.80;70.10
21493;DHT22;10908;50.690;4.400;2023-05-16T07:01:14;10.70;69.40
21493;DHT22;10908;50.690;4.400;2023-05-16T07:03:40;10.70;69.80
21493;DHT22;10908;50.690;4.400;2023-05-16T07:06:06;10.70;70.00
21493;DHT22;10908;50.690;4.400;2023-05-16T07:08:32;10.60;70.20
21493;DHT22;10908;50.690;4.400;2023-05-16T07:10:57;10.60;69.20
21493;DHT22;10908;50.690;4.400;2023-05-16T07:13:23;10.60;68.20
21493;DHT22;10908;50.690;4.400;2023-05-16T07:15:49;10.60;69.20
21493;DHT22;10908;50.690;4.400;2023-05-16T07:18:14;10.70;68.70
21493;DHT22;10908;50.690;4.400;2023-05-16T07:20:40;10.70;68.80
21493;DHT22;10908;50.690;4.400;2023-05-16T07:23:06;10.90;67.10
21493;DHT22;10908;50.690;4.400;2023-05-16T07:25:32;10.90;67.20
21493;DHT22;10908;50.690;4.400;2023-05-16T07:27:57;10.90;68.10
21493;DHT22;10908;50.690;4.400;2023-05-16T07:30:24;10.90;68.40
21493;DHT22;10908;50.690;4.400;2023-05-16T07:32:49;11.10;66.70
21493;DHT22;10908;50.690;4.400;2023-05-16T07:35:15;11.20;66.80
21493;DHT22;10908;50.690;4.400;2023-05-16T07:37:41;11.10;67.00
21493;DHT22;10908;50.690;4.400;2023-05-16T07:40:09;11.20;67.50
21493;DHT22;10908;50.690;4.400;2023-05-16T07:42:35;11.30;68.50
21493;DHT22;10908;50.690;4.400;2023-05-16T07:45:00;11.40;66.90
21493;DHT22;10908;50.690;4.400;2023-05-16T07:47:27;11.50;66.30
21493;DHT22;10908;50.690;4.400;2023-05-16T07:49:52;11.70;64.70
21493;DHT22;10908;50.690;4.400;2023-05-16T07:52:18;11.80;64.80
21493;DHT22;10908;50.690;4.400;2023-05-16T07:54:45;11.80;63.80
21493;DHT22;10908;50.690;4.400;2023-05-16T07:57:13;11.90;65.90
21493;DHT22;10908;50.690;4.400;2023-05-16T07:59:39;12.10;67.50
21493;DHT22;10908;50.690;4.400;2023-05-16T08:02:05;12.30;66.70
21493;DHT22;10908;50.690;4.400;2023-05-16T08:04:31;12.40;65.30
21493;DHT22;10908;50.690;4.400;2023-05-16T08:06:56;12.30;64.90
21493;DHT22;10908;50.690;4.400;2023-05-16T08:09:22;12.20;64.90
21493;DHT22;10908;50.690;4.400;2023-05-16T08:11:48;11.90;65.90
21493;DHT22;10908;50.690;4.400;2023-05-16T08:14:13;11.90;66.80
21493;DHT22;10908;50.690;4.400;2023-05-16T08:16:39;12.20;66.70
21493;DHT22;10908;50.690;4.400;2023-05-16T08:19:05;12.20;63.70
21493;DHT22;10908;50.690;4.400;2023-05-16T08:21:31;12.10;64.70
21493;DHT22;10908;50.690;4.400;2023-05-16T08:23:57;12.10;63.90
21493;DHT22;10908;50.690;4.400;2023-05-16T08:26:23;12.10;64.60
21493;DHT22;10908;50.690;4.400;2023-05-16T08:28:49;12.20;63.90
21493;DHT22;10908;50.690;4.400;2023-05-16T08:31:15;12.00;64.00
21493;DHT22;10908;50.690;4.400;2023-05-16T08:33:40;12.20;63.30
21493;DHT22;10908;50.690;4.400;2023-05-16T08:36:08;12.20;62.80
21493;DHT22;10908;50.690;4.400;2023-05-16T08:38:33;12.30;62.10
21493;DHT22;10908;50.690;4.400;2023-05-16T08:40:59;12.40;62.20
21493;DHT22;10908;50.690;4.400;2023-05-16T08:43:25;12.60;62.30
21493;DHT22;10908;50.690;4.400;2023-05-16T08:45:50;12.60;60.40
21493;DHT22;10908;50.690;4.400;2023-05-16T08:48:20;12.40;61.20
21493;DHT22;10908;50.690;4.400;2023-05-16T08:50:47;12.40;59.20
21493;DHT22;10908;50.690;4.400;2023-05-16T08:53:14;12.20;59.10
21493;DHT22;10908;50.690;4.400;2023-05-16T08:55:43;12.10;60.30
21493;DHT22;10908;50.690;4.400;2023-05-16T08:58:10;11.90;59.40
21493;DHT22;10908;50.690;4.400;2023-05-16T09:00:37;12.00;59.60
21493;DHT22;10908;50.690;4.400;2023-05-16T09:03:04;12.10;60.00
21493;DHT22;10908;50.690;4.400;2023-05-16T09:05:30;12.30;59.20
21493;DHT22;10908;50.690;4.400;2023-05-16T09:07:56;12.30;58.20
21493;DHT22;10908;50.690;4.400;2023-05-16T09:10:22;12.30;57.80
21493;DHT22;10908;50.690;4.400;2023-05-16T09:12:47;12.40;58.40
21493;DHT22;10908;50.690;4.400;2023-05-16T09:15:13;12.60;58.80
21493;DHT22;10908;50.690;4.400;2023-05-16T09:17:42;12.90;59.70
21493;DHT22;10908;50.690;4.400;2023-05-16T09:20:18;13.10;62.50
21493;DHT22;10908;50.690;4.400;2023-05-16T09:22:53;13.10;61.60
21493;DHT22;10908;50.690;4.400;2023-05-16T09:25:20;13.20;62.50
21493;DHT22;10908;50.690;4.400;2023-05-16T09:27:56;13.20;62.00
21493;DHT22;10908;50.690;4.400;2023-05-16T09:30:26;13.10;61.40
21493;DHT22;10908;50.690;4.400;2023-05-16T09:32:53;13.10;62.10
21493;DHT22;10908;50.690;4.400;2023-05-16T09:35:22;13.30;62.00
21493;DHT22;10908;50.690;4.400;2023-05-16T09:37:49;13.20;61.80
21493;DHT22;10908;50.690;4.400;2023-05-16T09:40:21;13.40;61.80
21493;DHT22;10908;50.690;4.400;2023-05-16T09:42:47;13.70;60.40
21493;DHT22;10908;50.690;4.400;2023-05-16T09:45:18;13.50;59.50
21493;DHT22;10908;50.690;4.400;2023-05-16T09:47:44;13.70;59.90
21493;DHT22;10908;50.690;4.400;2023-05-16T09:50:13;13.70;59.60
21493;DHT22;10908;50.690;4.400;2023-05-16T09:52:40;13.60;59.00
21493;DHT22;10908;50.690;4.400;2023-05-16T09:55:07;13.40;59.30
21493;DHT22;10908;50.690;4.400;2023-05-16T09:57:36;13.40;58.70
21493;DHT22;10908;50.690;4.400;2023-05-16T10:00:09;13.50;60.30
21493;DHT22;10908;50.690;4.400;2023-05-16T10:02:37;13.70;58.00
21493;DHT22;10908;50.690;4.400;2023-05-16T10:05:04;13.60;56.90
21493;DHT22;10908;50.690;4.400;2023-05-16T10:07:30;13.50;57.00
21493;DHT22;10908;50.690;4.400;2023-05-16T10:09:59;13.50;57.30
21493;DHT22;10908;50.690;4.400;2023-05-16T10:12:29;13.60;56.20
21493;DHT22;10908;50.690;4.400;2023-05-16T10:14:56;13.60;56.00
21493;DHT22;10908;50.690;4.400;2023-05-16T10:17:22;13.50;56.10
21493;DHT22;10908;50.690;4.400;2023-05-16T10:19:49;13.40;56.10
21493;DHT22;10908;50.690;4.400;2023-05-16T10:22:16;13.60;55.10
21493;DHT22;10908;50.690;4.400;2023-05-16T10:27:37;13.60;56.60
21493;DHT22;10908;50.690;4.400;2023-05-16T10:30:05;13.90;55.80
21493;DHT22;10908;50.690;4.400;2023-05-16T10:32:33;14.00;56.30
21493;DHT22;10908;50.690;4.400;2023-05-16T10:34:59;13.90;54.30
21493;DHT22;10908;50.690;4.400;2023-05-16T10:37:28;13.80;54.20
21493;DHT22;10908;50.690;4.400;2023-05-16T10:39:54;13.80;54.70
21493;DHT22;10908;50.690;4.400;2023-05-16T10:42:21;14.00;53.60
21493;DHT22;10908;50.690;4.400;2023-05-16T10:44:46;14.00;53.20
21493;DHT22;10908;50.690;4.400;2023-05-16T10:47:12;14.10;52.60
21493;DHT22;10908;50.690;4.400;2023-05-16T10:49:43;14.30;54.00
21493;DHT22;10908;50.690;4.400;2023-05-16T10:52:10;14.20;55.40
21493;DHT22;10908;50.690;4.400;2023-05-16T10:55:02;14.10;52.90
21493;DHT22;10908;50.690;4.400;2023-05-16T10:57:32;13.80;50.90
21493;DHT22;10908;50.690;4.400;2023-05-16T10:59:58;13.80;53.10
21493;DHT22;10908;50.690;4.400;2023-05-16T11:02:31;13.80;53.70
21493;DHT22;10908;50.690;4.400;2023-05-16T11:05:01;13.70;53.10
21493;DHT22;10908;50.690;4.400;2023-05-16T11:07:34;13.80;53.50
21493;DHT22;10908;50.690;4.400;2023-05-16T11:10:09;14.00;52.40
21493;DHT22;10908;50.690;4.400;2023-05-16T11:12:57;14.20;52.00
21493;DHT22;10908;50.690;4.400;2023-05-16T11:15:27;13.80;51.10
21493;DHT22;10908;50.690;4.400;2023-05-16T11:18:05;13.80;53.40
21493;DHT22;10908;50.690;4.400;2023-05-16T11:20:33;14.10;51.30
21493;DHT22;10908;50.690;4.400;2023-05-16T11:25:57;14.50;51.60
21493;DHT22;10908;50.690;4.400;2023-05-16T11:28:25;14.60;50.30
21493;DHT22;10908;50.690;4.400;2023-05-16T11:30:57;14.60;50.90
21493;DHT22;10908;50.690;4.400;2023-05-16T11:33:24;14.60;50.60
21493;DHT22;10908;50.690;4.400;2023-05-16T11:36:00;14.60;50.50
21493;DHT22;10908;50.690;4.400;2023-05-16T11:38:29;14.70;51.10
21493;DHT22;10908;50.690;4.400;2023-05-16T11:41:04;14.80;51.60
21493;DHT22;10908;50.690;4.400;2023-05-16T11:43:41;14.60;50.80
21493;DHT22;10908;50.690;4.400;2023-05-16T11:46:13;14.40;51.00
21493;DHT22;10908;50.690;4.400;2023-05-16T11:48:39;14.30;50.40
21493;DHT22;10908;50.690;4.400;2023-05-16T11:51:05;14.60;51.50
21493;DHT22;10908;50.690;4.400;2023-05-16T11:53:32;14.60;51.30
21493;DHT22;10908;50.690;4.400;2023-05-16T11:55:58;14.40;50.70
21493;DHT22;10908;50.690;4.400;2023-05-16T11:58:26;14.40;51.60
21493;DHT22;10908;50.690;4.400;2023-05-16T12:00:52;14.30;52.40
21493;DHT22;10908;50.690;4.400;2023-05-16T12:03:18;14.50;53.30
21493;DHT22;10908;50.690;4.400;2023-05-16T12:05:55;14.70;52.30
21493;DHT22;10908;50.690;4.400;2023-05-16T12:08:25;14.70;51.90
21493;DHT22;10908;50.690;4.400;2023-05-16T12:10:51;14.80;50.20
21493;DHT22;10908;50.690;4.400;2023-05-16T12:13:20;14.60;50.80
21493;DHT22;10908;50.690;4.400;2023-05-16T12:15:47;14.50;52.70
21493;DHT22;10908;50.690;4.400;2023-05-16T12:18:14;14.80;53.00
21493;DHT22;10908;50.690;4.400;2023-05-16T12:20:40;14.90;51.60
21493;DHT22;10908;50.690;4.400;2023-05-16T12:23:13;14.90;50.10
21493;DHT22;10908;50.690;4.400;2023-05-16T12:25:45;14.90;51.40
21493;DHT22;10908;50.690;4.400;2023-05-16T12:28:12;15.20;50.30
21493;DHT22;10908;50.690;4.400;2023-05-16T12:30:43;14.90;50.00
21493;DHT22;10908;50.690;4.400;2023-05-16T12:33:13;14.50;51.50
21493;DHT22;10908;50.690;4.400;2023-05-16T12:35:44;14.60;50.90
21493;DHT22;10908;50.690;4.400;2023-05-16T12:38:12;14.80;51.00
21493;DHT22;10908;50.690;4.400;2023-05-16T12:40:40;14.70;50.70
21493;DHT22;10908;50.690;4.400;2023-05-16T12:43:18;14.60;51.30
21493;DHT22;10908;50.690;4.400;2023-05-16T12:45:53;14.70;51.40
21493;DHT22;10908;50.690;4.400;2023-05-16T12:48:20;14.60;51.40
21493;DHT22;10908;50.690;4.400;2023-05-16T12:50:46;14.50;51.10
21493;DHT22;10908;50.690;4.400;2023-05-16T12:53:13;14.30;51.50
21493;DHT22;10908;50.690;4.400;2023-05-16T12:55:40;14.30;51.60
21493;DHT22;10908;50.690;4.400;2023-05-16T12:58:07;14.70;51.30
21493;DHT22;10908;50.690;4.400;2023-05-16T13:00:33;14.90;51.00
21493;DHT22;10908;50.690;4.400;2023-05-16T13:02:58;15.00;49.90
21493;DHT22;10908;50.690;4.400;2023-05-16T13:05:24;15.00;48.80
21493;DHT22;10908;50.690;4.400;2023-05-16T13:07:50;15.10;49.60
21493;DHT22;10908;50.690;4.400;2023-05-16T13:10:17;14.80;48.90
21493;DHT22;10908;50.690;4.400;2023-05-16T13:12:43;14.90;49.80
21493;DHT22;10908;50.690;4.400;2023-05-16T13:15:10;15.20;49.90
21493;DHT22;10908;50.690;4.400;2023-05-16T13:17:41;15.10;47.00
21493;DHT22;10908;50.690;4.400;2023-05-16T13:20:09;15.00;46.60
21493;DHT22;10908;50.690;4.400;2023-05-16T13:22:38;14.90;46.30
21493;DHT22;10908;50.690;4.400;2023-05-16T13:25:04;14.70;47.50
21493;DHT22;10908;50.690;4.400;2023-05-16T13:27:31;14.80;47.60
21493;DHT22;10908;50.690;4.400;2023-05-16T13:29:57;14.80;47.60
21493;DHT22;10908;50.690;4.400;2023-05-16T13:32:23;14.80;47.40
21493;DHT22;10908;50.690;4.400;2023-05-16T13:34:50;14.90;47.70
21493;DHT22;10908;50.690;4.400;2023-05-16T13:37:16;15.20;46.60
21493;DHT22;10908;50.690;4.400;2023-05-16T13:39:42;15.20;46.30
21493;DHT22;10908;50.690;4.400;2023-05-16T13:42:07;15.20;46.10
21493;DHT22;10908;50.690;4.400;2023-05-16T13:44:33;15.10;45.20
21493;DHT22;10908;50.690;4.400;2023-05-16T13:46:59;15.20;46.20
21493;DHT22;10908;50.690;4.400;2023-05-16T13:49:25;15.40;44.80
21493;DHT22;10908;50.690;4.400;2023-05-16T13:51:51;15.60;46.70
21493;DHT22;10908;50.690;4.400;2023-05-16T13:54:18;15.50;46.00
21493;DHT22;10908;50.690;4.400;2023-05-16T13:56:44;15.30;46.30
21493;DHT22;10908;50.690;4.400;2023-05-16T13:59:10;15.40;45.80
21493;DHT22;10908;50.690;4.400;2023-05-16T14:01:36;15.40;47.00
21493;DHT22;10908;50.690;4.400;2023-05-16T14:04:02;15.40;46.30
21493;DHT22;10908;50.690;4.400;2023-05-16T14:06:27;15.50;45.80
21493;DHT22;10908;50.690;4.400;2023-05-16T14:08:53;15.40;45.20
21493;DHT22;10908;50.690;4.400;2023-05-16T14:11:19;15.50;45.30
21493;DHT22;10908;50.690;4.400;2023-05-16T14:13:47;15.50;45.50
21493;DHT22;10908;50.690;4.400;2023-05-16T14:16:13;15.30;46.30
21493;DHT22;10908;50.690;4.400;2023-05-16T14:18:39;15.20;45.50
21493;DHT22;10908;50.690;4.400;2023-05-16T14:21:05;15.10;46.80
21493;DHT22;10908;50.690;4.400;2023-05-16T14:23:31;15.30;46.20
21493;DHT22;10908;50.690;4.400;2023-05-16T14:25:56;15.20;46.00
21493;DHT22;10908;50.690;4.400;2023-05-16T14:28:22;15.30;46.50
21493;DHT22;10908;50.690;4.400;2023-05-16T14:30:48;15.50;46.60
21493;DHT22;10908;50.690;4.400;2023-05-16T14:33:13;15.70;46.20
21493;DHT22;10908;50.690;4.400;2023-05-16T14:35:39;15.70;45.80
21493;DHT22;10908;50.690;4.400;2023-05-16T14:38:05;15.70;44.80
21493;DHT22;10908;50.690;4.400;2023-05-16T14:40:32;15.50;45.30
21493;DHT22;10908;50.690;4.400;2023-05-16T14:42:58;15.30;45.00
21493;DHT22;10908;50.690;4.400;2023-05-16T14:45:24;15.10;45.90
21493;DHT22;10908;50.690;4.400;2023-05-16T14:47:50;15.00;46.80
21493;DHT22;10908;50.690;4.400;2023-05-16T14:50:16;15.10;47.30
21493;DHT22;10908;50.690;4.400;2023-05-16T14:52:42;15.10;46.70
21493;DHT22;10908;50.690;4.400;2023-05-16T14:55:08;15.10;44.70
21493;DHT22;10908;50.690;4.400;2023-05-16T14:57:34;14.90;45.30
21493;DHT22;10908;50.690;4.400;2023-05-16T15:00:00;14.70;45.70
21493;DHT22;10908;50.690;4.400;2023-05-16T15:02:26;14.70;46.00
21493;DHT22;10908;50.690;4.400;2023-05-16T15:04:52;14.70;46.70
21493;DHT22;10908;50.690;4.400;2023-05-16T15:07:19;14.90;46.10
21493;DHT22;10908;50.690;4.400;2023-05-16T15:09:45;15.00;46.90
21493;DHT22;10908;50.690;4.400;2023-05-16T15:12:10;15.30;46.20
21493;DHT22;10908;50.690;4.400;2023-05-16T15:14:36;15.60;46.00
21493;DHT22;10908;50.690;4.400;2023-05-16T15:17:02;15.70;44.50
21493;DHT22;10908;50.690;4.400;2023-05-16T15:19:28;15.70;44.00
21493;DHT22;10908;50.690;4.400;2023-05-16T15:21:54;15.70;44.80
21493;DHT22;10908;50.690;4.400;2023-05-16T15:24:21;15.60;43.70
21493;DHT22;10908;50.690;4.400;2023-05-16T15:26:47;15.60;45.00
21493;DHT22;10908;50.690;4.400;2023-05-16T15:29:14;15.80;46.00
21493;DHT22;10908;50.690;4.400;2023-05-16T15:31:40;15.70;44.30
21493;DHT22;10908;50.690;4.400;2023-05-16T15:34:05;15.60;45.30
21493;DHT22;10908;50.690;4.400;2023-05-16T15:36:33;15.70;45.90
21493;DHT22;10908;50.690;4.400;2023-05-16T15:38:59;15.80;45.60
21493;DHT22;10908;50.690;4.400;2023-05-16T15:54:56;15.70;46.20
21493;DHT22;10908;50.690;4.400;2023-05-16T15:57:22;15.20;45.30
21493;DHT22;10908;50.690;4.400;2023-05-16T15:59:48;15.10;45.40